Time;durP1;ratioP1;P1;durP2;ratioP2;P2;SDS_P1;SDS_P2;PMS_P1;PMS_P2;Temp;Humidity;BMP_temperature;BMP_pressure;BME280_temperature;BME280_humidity;BME280_pressure;Samples;Min_cycle;Max_cycle;Signal;HPM_P1;HPM_P2
2021/07/14 00:01:33;;;;;;;5.13;2.78;;;20.60;75.80;;;23.74;61.67;100965.84;4998694;28;97625;-72
2021/07/14 00:04:05;;;;;;;11.40;3.20;;;20.60;75.80;;;23.73;62.07;100969.75;5000054;28;96887;-72
2021/07/14 00:07:09;;;;;;;11.60;2.40;;;20.60;75.80;;;23.76;61.69;100958.78;5062893;27;97279;-71
2021/07/14 00:09:38;;;;;;;15.32;4.63;;;20.60;75.80;;;23.80;61.61;100961.56;5062229;27;96729;-71
2021/07/14 00:12:09;;;;;;;12.95;3.30;;;20.60;75.80;;;23.83;61.53;100958.84;5057907;27;98347;-71
2021/07/14 00:17:42;;;;;;;3.92;2.65;;;20.60;75.80;;;23.87;61.25;100967.09;5043125;27;96903;-71
2021/07/14 00:23:00;;;;;;;3.97;2.17;;;20.60;75.90;;;23.81;61.43;100972.13;5058294;27;98025;-71
2021/07/14 00:25:30;;;;;;;6.32;2.35;;;20.60;75.90;;;23.84;61.28;100965.13;5059432;27;97713;-71
2021/07/14 00:27:59;;;;;;;2.15;1.95;;;20.60;75.90;;;23.84;61.19;100968.63;5066227;27;97238;-71
2021/07/14 00:30:31;;;;;;;3.15;2.85;;;20.60;75.90;;;23.80;61.68;100961.56;5058708;27;96698;-71
2021/07/14 00:32:59;;;;;;;2.17;1.65;;;20.60;75.90;;;23.73;61.74;100961.53;5058760;27;97948;-71
2021/07/14 00:35:29;;;;;;;3.88;3.05;;;20.60;76.00;;;23.71;61.44;100961.09;5057792;27;97320;-71
2021/07/14 00:37:59;;;;;;;1.90;1.50;;;20.60;75.90;;;23.70;61.75;100949.38;5061559;27;96918;-71
2021/07/14 00:40:30;;;;;;;5.10;2.20;;;20.60;76.00;;;23.70;61.88;100946.66;5059315;27;96937;-71
2021/07/14 00:42:59;;;;;;;2.97;1.85;;;20.60;76.00;;;23.73;61.72;100958.78;5038954;27;100378;-71
2021/07/14 00:45:30;;;;;;;6.20;2.22;;;20.60;76.00;;;23.70;61.85;100960.31;5058506;27;98221;-71
2021/07/14 00:48:00;;;;;;;4.07;3.58;;;20.60;76.00;;;23.70;61.77;100957.59;5041572;27;96870;-71
2021/07/14 00:50:33;;;;;;;2.45;2.25;;;20.60;76.00;;;23.75;61.88;100961.94;5045310;27;96988;-71
2021/07/14 00:53:06;;;;;;;7.20;2.72;;;20.60;76.00;;;23.73;61.89;100964.25;5058790;27;96857;-71
2021/07/14 00:55:35;;;;;;;2.00;1.80;;;20.60;76.10;;;23.72;61.74;100962.66;5046587;27;97705;-71
2021/07/14 00:58:05;;;;;;;5.43;2.05;;;20.60;76.10;;;23.70;61.74;100962.25;5055713;27;96850;-71
2021/07/14 01:00:34;;;;;;;3.70;3.00;;;20.60;76.10;;;23.68;61.95;100954.47;5047756;27;96809;-71
2021/07/14 01:03:06;;;;;;;3.95;2.78;;;20.60;76.70;;;23.75;61.54;100950.97;5054595;27;96863;-71
2021/07/14 01:05:45;;;;;;;3.38;1.55;;;20.60;76.10;;;23.80;61.47;100951.38;5051344;27;96824;-71
2021/07/14 01:08:21;;;;;;;16.52;2.72;;;20.60;76.10;;;23.79;61.46;100951.78;5052506;27;96816;-70
2021/07/14 01:10:59;;;;;;;5.05;2.92;;;20.60;76.20;;;23.83;61.46;100961.56;5057045;27;96930;-71
2021/07/14 01:13:43;;;;;;;1.88;1.42;;;20.60;76.10;;;23.79;61.31;100958.00;5055851;27;96887;-71
2021/07/14 01:16:20;;;;;;;5.40;2.47;;;20.60;76.10;;;23.67;61.66;100958.38;5055988;27;97780;-71
2021/07/14 01:18:58;;;;;;;2.95;2.25;;;20.60;76.10;;;23.64;61.78;100948.19;5042254;27;97022;-71
2021/07/14 01:21:34;;;;;;;2.80;1.77;;;20.50;76.10;;;23.66;61.54;100945.06;5040862;27;96800;-71
2021/07/14 01:24:18;;;;;;;4.80;2.78;;;20.50;76.10;;;23.66;61.85;100948.59;5039079;27;97142;-71
2021/07/14 01:27:06;;;;;;;12.05;2.33;;;20.50;76.20;;;23.64;61.94;100939.97;5041969;27;96938;-71
2021/07/14 01:29:42;;;;;;;4.55;2.55;;;20.50;76.20;;;23.61;62.04;100939.94;5039940;27;96835;-71
2021/07/14 01:32:14;;;;;;;7.70;3.65;;;20.50;76.10;;;23.67;61.91;100943.88;5041068;27;96826;-71
2021/07/14 01:34:50;;;;;;;14.57;3.33;;;20.50;76.20;;;23.56;62.16;100943.81;5027812;27;97749;-71
2021/07/14 01:37:23;;;;;;;12.05;2.75;;;20.50;76.20;;;23.55;62.07;100941.50;5042472;27;97750;-71
2021/07/14 01:39:56;;;;;;;5.20;2.70;;;20.50;76.20;;;23.56;61.80;100938.34;5046930;27;96895;-71
2021/07/14 01:42:30;;;;;;;2.75;1.65;;;20.40;76.20;;;23.57;61.99;100936.41;5045610;27;96831;-71
2021/07/14 01:45:04;;;;;;;5.75;2.22;;;20.40;76.20;;;23.57;62.39;100936.41;5040698;27;98147;-71
2021/07/14 01:47:36;;;;;;;19.02;3.83;;;20.40;76.20;;;23.61;61.71;100934.47;5042540;27;97922;-71
2021/07/14 01:50:10;;;;;;;31.55;2.08;;;20.40;76.20;;;23.61;61.65;100939.94;5041960;27;97371;-71
2021/07/14 01:52:42;;;;;;;10.13;6.03;;;20.40;76.20;;;23.58;62.12;100935.25;5045239;27;96989;-71
2021/07/14 01:55:13;;;;;;;6.25;3.10;;;20.40;76.20;;;23.58;62.08;100930.56;5043760;27;97929;-71
2021/07/14 01:57:45;;;;;;;7.15;3.78;;;20.40;76.20;;;23.59;62.05;100923.13;5037745;27;97901;-71
2021/07/14 02:00:16;;;;;;;7.70;3.70;;;20.40;76.30;;;23.62;61.58;100925.09;5041339;27;97260;-71
2021/07/14 02:02:54;;;;;;;6.30;2.65;;;20.40;76.30;;;23.58;62.03;100930.56;5041734;27;97255;-71
2021/07/14 02:05:24;;;;;;;9.30;3.42;;;20.40;76.30;;;23.57;61.99;100922.75;5043440;27;97948;-71
2021/07/14 02:07:53;;;;;;;4.07;2.50;;;20.40;76.30;;;23.61;62.04;100929.00;5042922;27;97164;-71
2021/07/14 02:10:22;;;;;;;3.72;2.05;;;20.40;76.30;;;23.64;61.85;100934.50;5059971;27;96825;-71
2021/07/14 02:12:53;;;;;;;3.67;2.15;;;20.40;76.30;;;23.60;61.68;100925.50;5040631;27;97155;-71
2021/07/14 02:15:25;;;;;;;3.90;1.65;;;20.40;76.40;;;23.63;61.84;100926.66;5038998;27;98146;-71
2021/07/14 02:18:03;;;;;;;1.95;1.23;;;20.40;76.40;;;23.60;61.85;100920.03;5046700;27;97681;-71
2021/07/14 02:20:32;;;;;;;3.58;2.60;;;20.40;76.40;;;23.59;62.08;100923.94;5041199;27;96966;-71
2021/07/14 02:23:05;;;;;;;6.68;2.53;;;20.40;76.40;;;23.55;62.07;100914.91;5045254;27;98306;-71
2021/07/14 02:25:34;;;;;;;3.58;1.70;;;20.40;76.40;;;23.58;62.10;100919.63;5038359;27;97220;-71
2021/07/14 02:28:07;;;;;;;1.95;1.80;;;20.40;76.50;;;23.59;62.17;100918.47;5032027;27;97665;-71
2021/07/14 02:30:36;;;;;;;5.68;2.70;;;20.40;76.50;;;23.59;62.11;100921.19;5038446;27;100658;-71
2021/07/14 02:33:10;;;;;;;9.25;2.45;;;20.40;76.40;;;23.57;62.05;100909.06;5035680;27;97637;-71
2021/07/14 02:35:44;;;;;;;3.90;1.73;;;20.40;76.50;;;23.59;62.10;100906.72;5041788;27;98129;-71
2021/07/14 02:38:19;;;;;;;2.92;1.33;;;20.40;76.50;;;23.55;62.00;100917.63;5043031;27;97984;-71
2021/07/14 02:40:57;;;;;;;3.22;2.00;;;20.40;76.50;;;23.56;62.17;100912.97;5045225;27;96969;-71
2021/07/14 02:43:28;;;;;;;5.10;1.67;;;20.40;76.60;;;23.56;62.22;100918.44;5042169;27;97071;-71
2021/07/14 02:46:05;;;;;;;5.10;3.33;;;20.40;76.50;;;23.55;62.08;100919.59;5044240;27;97840;-71
2021/07/14 02:48:35;;;;;;;3.13;2.60;;;20.40;76.60;;;23.52;62.42;100906.69;5040219;27;97649;-70
2021/07/14 02:51:08;;;;;;;5.88;2.67;;;20.40;76.60;;;23.49;62.33;100905.50;5025899;27;96942;-72
2021/07/14 02:53:46;;;;;;;2.85;1.45;;;20.40;76.60;;;23.51;61.84;100899.66;5048324;27;96731;-71
2021/07/14 02:56:19;;;;;;;6.72;3.60;;;20.40;76.60;;;23.48;62.30;100892.22;5040261;27;96823;-71
2021/07/14 02:58:55;;;;;;;;;;;20.30;76.60;;;23.41;62.30;100897.63;5039721;27;96920;-71
2021/07/14 03:01:25;;;;;;;7.45;4.65;;;20.30;76.80;;;23.35;62.53;100899.16;5058891;27;97756;-71
2021/07/14 03:03:55;;;;;;;4.15;2.50;;;20.30;76.70;;;23.35;62.37;100899.16;5041435;27;97089;-71
2021/07/14 03:06:25;;;;;;;3.63;2.30;;;20.20;76.60;;;23.36;62.58;100898.00;5039924;27;98537;-71
2021/07/14 03:09:02;;;;;;;4.55;2.17;;;20.20;76.70;;;23.39;62.24;100900.78;5032661;27;99159;-71
2021/07/14 03:11:39;;;;;;;4.18;2.85;;;20.20;76.70;;;23.35;62.20;100902.72;5012805;27;96917;-71
2021/07/14 03:14:14;;;;;;;18.08;3.45;;;20.20;76.80;;;23.31;62.59;100906.56;5044358;27;97356;-71
2021/07/14 03:16:45;;;;;;;4.30;2.05;;;20.20;76.80;;;23.33;62.35;100912.44;5041541;27;98652;-71
2021/07/14 03:19:15;;;;;;;10.52;3.25;;;20.20;76.90;;;23.32;62.41;100908.16;5039346;27;96940;-71
2021/07/14 03:21:45;;;;;;;4.88;3.22;;;20.20;76.90;;;23.29;62.56;100911.66;5040280;27;97187;-71
2021/07/14 03:24:14;;;;;;;12.70;3.63;;;20.20;77.00;;;23.28;62.34;100907.34;5039292;27;97122;-71
2021/07/14 03:26:43;;;;;;;2.20;1.65;;;20.10;76.90;;;23.25;62.37;100916.31;5048308;27;98211;-71
2021/07/14 03:29:15;;;;;;;14.55;2.70;;;20.10;76.90;;;23.19;62.51;100915.88;5041802;27;97685;-71
2021/07/14 03:31:46;;;;;;;3.40;1.85;;;20.10;76.90;;;23.16;62.64;100904.94;5040585;27;96788;-71
2021/07/14 03:34:15;;;;;;;6.63;2.85;;;20.10;76.90;;;23.13;62.40;100906.47;5030320;27;97175;-71
2021/07/14 03:36:48;;;;;;;1.77;0.85;;;20.10;77.00;;;23.10;62.49;100915.44;5024230;27;96957;-71
2021/07/14 03:39:19;;;;;;;6.93;2.80;;;20.00;77.00;;;23.09;62.59;100907.56;5041281;27;97732;-71
2021/07/14 03:41:49;;;;;;;5.65;2.53;;;20.00;77.00;;;23.06;62.73;100909.16;5038429;27;96934;-71
2021/07/14 03:44:21;;;;;;;8.98;3.13;;;20.00;77.10;;;23.09;62.56;100913.84;5030076;27;96958;-71
2021/07/14 03:46:52;;;;;;;7.50;2.20;;;20.00;77.10;;;23.11;62.42;100914.28;5045142;27;96803;-71
2021/07/14 03:49:22;;;;;;;13.15;3.72;;;19.90;77.00;;;23.10;62.47;100909.16;5034385;27;97684;-71
2021/07/14 03:51:51;;;;;;;9.93;3.05;;;19.90;77.00;;;23.07;62.73;100902.50;5043785;27;97224;-71
2021/07/14 03:54:21;;;;;;;3.20;1.88;;;19.90;77.10;;;23.02;62.72;100904.81;5044841;27;97026;-71
2021/07/14 03:56:50;;;;;;;6.68;1.80;;;19.90;77.10;;;23.03;62.39;100909.09;5041182;27;97909;-71
2021/07/14 03:59:21;;;;;;;7.18;2.85;;;19.90;77.10;;;22.96;62.78;100907.09;5047032;27;97662;-71
2021/07/14 04:01:52;;;;;;;6.32;2.42;;;19.90;77.10;;;22.90;63.02;100911.34;5041208;27;96899;-71
2021/07/14 04:04:21;;;;;;;4.88;2.28;;;19.90;77.10;;;22.86;63.13;100909.78;5024632;27;97564;-71
2021/07/14 04:06:59;;;;;;;1.35;1.00;;;19.90;77.10;;;22.86;62.71;100907.06;5039668;27;96830;-71
2021/07/14 04:09:33;;;;;;;1.67;1.57;;;19.80;77.10;;;22.90;62.83;100913.31;5042281;27;98727;-71
2021/07/14 04:12:04;;;;;;;2.42;2.00;;;19.80;77.10;;;22.90;62.75;100905.13;5046436;27;96918;-71
2021/07/14 04:14:34;;;;;;;15.02;4.80;;;19.80;77.10;;;22.87;62.77;100903.16;5039640;27;96918;-72
2021/07/14 04:17:05;;;;;;;5.18;1.63;;;19.80;77.10;;;22.86;62.92;100907.81;5042431;27;96943;-71
2021/07/14 04:19:34;;;;;;;2.75;2.05;;;19.80;77.10;;;22.93;62.93;100907.88;5025633;27;97055;-71
2021/07/14 04:22:08;;;;;;;7.05;2.30;;;19.80;77.10;;;22.91;62.99;100906.69;5025861;27;96845;-71
2021/07/14 04:24:38;;;;;;;3.92;2.53;;;19.80;77.10;;;22.93;62.96;100910.59;5044694;27;97122;-71
2021/07/14 04:27:09;;;;;;;3.85;0.77;;;19.80;77.10;;;22.97;62.88;100905.97;5049898;27;97023;-72
2021/07/14 04:29:39;;;;;;;20.40;3.25;;;19.80;77.00;;;23.02;62.66;100907.53;5038644;27;97009;-71
2021/07/14 04:32:08;;;;;;;3.72;2.65;;;19.80;77.00;;;23.11;62.29;100902.53;5034968;27;97282;-71
2021/07/14 04:34:37;;;;;;;3.00;2.58;;;19.90;77.10;;;23.07;62.40;100898.97;5041768;27;96757;-72
2021/07/14 04:37:05;;;;;;;1.63;1.50;;;19.90;77.10;;;23.07;62.40;100893.50;5045822;27;98406;-71
2021/07/14 04:39:34;;;;;;;2.20;2.00;;;19.90;77.00;;;23.15;62.28;100901.41;5041292;27;97888;-72
2021/07/14 04:42:05;;;;;;;5.90;2.97;;;19.90;77.00;;;23.12;62.52;100906.84;5040702;27;96854;-71
2021/07/14 04:44:36;;;;;;;4.40;2.13;;;19.90;77.00;;;23.13;62.49;100906.47;5034898;27;99547;-71
2021/07/14 04:47:06;;;;;;;7.78;3.45;;;19.90;77.00;;;23.11;62.42;100908.81;5040453;27;97559;-71
2021/07/14 04:49:36;;;;;;;1.85;1.73;;;19.90;77.00;;;23.09;62.24;100910.31;5035292;27;97772;-71
2021/07/14 04:52:06;;;;;;;7.28;3.50;;;19.90;77.00;;;23.11;62.44;100906.06;5038073;27;97879;-71
2021/07/14 04:54:34;;;;;;;15.45;2.50;;;19.90;77.00;;;23.06;62.47;100911.06;5031287;27;97190;-72
2021/07/14 04:57:05;;;;;;;2.30;2.10;;;19.90;77.00;;;23.06;62.59;100911.88;5039077;27;100370;-72
2021/07/14 04:59:35;;;;;;;4.75;2.88;;;19.90;77.00;;;23.09;62.55;100913.03;5041587;27;96766;-71
2021/07/14 05:02:07;;;;;;;4.60;1.58;;;19.90;77.00;;;22.94;62.82;100912.16;5040664;27;97686;-73
2021/07/14 05:04:37;;;;;;;8.32;2.70;;;19.90;77.00;;;22.91;63.27;100912.16;5025463;28;96896;-71
2021/07/14 05:07:06;;;;;;;8.23;4.45;;;19.90;77.00;;;23.02;62.74;100905.59;5039962;27;98193;-71
2021/07/14 05:09:35;;;;;;;7.82;2.72;;;19.90;77.00;;;23.03;62.85;100909.09;5047076;27;97106;-71
2021/07/14 05:12:06;;;;;;;1.92;1.58;;;20.00;77.00;;;23.04;62.99;100902.47;5042574;27;97162;-72
2021/07/14 05:14:35;;;;;;;4.10;2.40;;;19.90;77.00;;;23.04;62.52;100906.00;5039919;27;96961;-71
2021/07/14 05:17:06;;;;;;;5.43;1.92;;;19.90;77.00;;;23.00;62.68;100902.47;5040381;27;99212;-71
2021/07/14 05:19:35;;;;;;;7.95;3.83;;;20.00;77.00;;;23.03;62.68;100904.44;5042188;27;97869;-71
2021/07/14 05:22:05;;;;;;;4.00;1.60;;;19.90;77.00;;;23.07;62.79;100898.97;5024378;27;97433;-71
2021/07/14 05:24:33;;;;;;;5.38;2.05;;;20.00;77.00;;;23.03;62.76;100898.97;5022870;27;97062;-71
2021/07/14 05:27:05;;;;;;;6.32;2.38;;;20.00;77.00;;;23.03;62.92;100893.50;5040272;27;98787;-71
2021/07/14 05:29:34;;;;;;;1.75;1.65;;;20.00;77.00;;;23.05;62.90;100898.56;5040248;27;96911;-71
2021/07/14 05:32:07;;;;;;;6.03;3.22;;;20.00;77.00;;;23.06;63.30;100903.69;5040845;27;96895;-71
2021/07/14 05:34:36;;;;;;;8.88;2.47;;;20.00;77.00;;;23.06;62.60;100900.16;5042537;27;96982;-71
2021/07/14 05:37:05;;;;;;;6.60;2.58;;;20.00;76.90;;;23.08;62.64;100906.00;5009271;27;100314;-71
2021/07/14 05:39:33;;;;;;;10.50;2.80;;;20.00;77.00;;;23.05;62.76;100902.09;5040118;27;96821;-72
2021/07/14 05:42:06;;;;;;;11.27;3.50;;;20.00;77.00;;;23.07;62.79;100904.44;5042010;27;97107;-70
2021/07/14 05:44:35;;;;;;;9.00;4.43;;;20.00;76.90;;;23.12;62.55;100909.56;5041097;27;96925;-70
2021/07/14 05:47:06;;;;;;;6.28;2.60;;;20.00;76.90;;;23.17;62.16;100909.25;5024451;27;97946;-71
2021/07/14 05:49:35;;;;;;;26.95;2.92;;;20.00;76.90;;;23.25;62.30;100910.84;5039937;27;98859;-71
2021/07/14 05:52:08;;;;;;;7.68;3.00;;;20.00;76.90;;;23.25;62.09;100916.31;5039999;27;98025;-71
2021/07/14 05:54:37;;;;;;;26.58;4.47;;;20.00;76.90;;;23.24;62.31;100912.78;5042670;27;98044;-71
2021/07/14 05:57:06;;;;;;;4.07;2.60;;;20.00;76.90;;;23.25;62.46;100917.09;5047025;27;97931;-71
2021/07/14 05:59:34;;;;;;;4.47;3.08;;;20.00;76.90;;;23.29;62.14;100908.91;5047910;27;97666;-72
2021/07/14 06:02:09;;;;;;;9.32;5.78;;;20.00;76.90;;;23.35;61.86;100915.59;5024951;27;97070;-71
2021/07/14 06:04:38;;;;;;;4.65;3.38;;;20.00;76.90;;;23.40;61.76;100917.94;5041766;27;97154;-71
2021/07/14 06:07:07;;;;;;;8.90;1.50;;;20.00;76.90;;;23.39;61.84;100919.13;5040756;27;97916;-71
2021/07/14 06:09:39;;;;;;;10.07;3.25;;;20.00;76.90;;;23.36;61.97;100923.41;5041541;27;97705;-71
2021/07/14 06:12:10;;;;;;;4.90;2.90;;;20.00;76.90;;;23.32;61.87;100925.34;5007658;27;97003;-72
2021/07/14 06:14:39;;;;;;;5.68;2.95;;;20.00;76.90;;;23.27;62.26;100931.19;5040274;27;97584;-71
2021/07/14 06:17:09;;;;;;;1.73;1.60;;;20.00;76.90;;;23.27;62.03;100930.38;5021123;27;98736;-71
2021/07/14 06:19:38;;;;;;;4.75;2.47;;;20.00;77.00;;;23.27;62.26;100933.13;5035753;27;97815;-71
2021/07/14 06:22:07;;;;;;;4.28;1.95;;;20.00;77.00;;;23.27;62.07;100933.13;5038332;27;96901;-71
2021/07/14 06:24:38;;;;;;;4.72;1.85;;;20.00;77.00;;;23.25;61.99;100938.19;5051258;27;96947;-71
2021/07/14 06:27:13;;;;;;;4.50;2.85;;;19.90;77.10;;;23.18;62.12;100938.94;5036653;27;97033;-71
2021/07/14 06:29:42;;;;;;;3.28;2.95;;;19.90;77.10;;;23.12;62.50;100936.91;5035226;27;97324;-71
2021/07/14 06:32:35;;;;;;;2.65;1.90;;;19.90;77.20;;;23.08;62.59;100944.28;5039959;27;96869;-71
2021/07/14 06:35:10;;;;;;;5.85;3.08;;;19.90;77.20;;;23.14;62.37;100943.59;5042077;27;96993;-71
2021/07/14 06:37:41;;;;;;;1.98;1.85;;;19.90;77.20;;;23.24;62.35;100945.59;5037240;27;97189;-71
2021/07/14 06:40:12;;;;;;;9.55;3.80;;;19.90;77.20;;;23.22;62.35;100949.91;5043137;27;97944;-71
2021/07/14 06:42:41;;;;;;;4.80;2.55;;;19.90;77.20;;;23.05;62.75;100945.03;5043556;27;97145;-71
2021/07/14 06:45:13;;;;;;;5.60;1.05;;;19.90;77.20;;;23.04;62.98;100943.47;5037341;27;96987;-72
2021/07/14 06:47:44;;;;;;;5.25;2.40;;;19.90;77.20;;;23.07;62.91;100938.03;5040193;27;98049;-72
2021/07/14 06:50:15;;;;;;;4.80;1.73;;;19.90;77.20;;;23.12;62.39;100945.91;5040192;27;97626;-72
2021/07/14 06:52:44;;;;;;;3.05;1.77;;;20.00;77.10;;;23.25;62.35;100932.72;5025504;27;96970;-71
2021/07/14 06:55:14;;;;;;;2.03;1.35;;;20.00;77.10;;;23.26;62.38;100929.59;5038384;27;97855;-71
2021/07/14 06:57:45;;;;;;;10.85;2.90;;;20.00;77.10;;;23.35;62.18;100937.47;5039459;27;97458;-71
2021/07/14 07:00:16;;;;;;;5.50;2.58;;;20.00;77.10;;;23.39;61.86;100932.78;5040601;27;97974;-71
2021/07/14 07:02:45;;;;;;;7.88;3.42;;;20.10;77.00;;;23.42;61.80;100941.03;5041926;27;96914;-72
2021/07/14 07:05:15;;;;;;;4.68;2.50;;;20.10;77.00;;;23.45;61.74;100932.06;5039832;27;97218;-74
2021/07/14 07:07:44;;;;;;;5.85;2.83;;;20.10;76.90;;;23.68;61.44;100934.50;5041264;27;96819;-74
2021/07/14 07:10:13;;;;;;;2.38;2.17;;;20.20;76.90;;;23.73;61.28;100934.94;5039888;27;97461;-75
2021/07/14 07:12:42;;;;;;;6.05;2.92;;;20.20;76.80;;;23.74;61.36;100927.53;5041247;27;96786;-74
2021/07/14 07:15:13;;;;;;;5.18;2.05;;;20.20;76.80;;;23.76;61.06;100930.66;5039597;27;97816;-75
2021/07/14 07:17:42;;;;;;;3.60;2.40;;;20.20;76.70;;;23.81;60.95;100925.59;5054764;27;98016;-75
2021/07/14 07:20:15;;;;;;;2.40;2.13;;;20.30;76.70;;;23.86;60.93;100918.97;5038312;27;97619;-75
2021/07/14 07:22:44;;;;;;;;;;;20.30;76.60;;;23.89;60.71;100929.16;5042345;27;96961;-74
2021/07/14 07:25:14;;;;;;;2.78;1.50;;;20.40;76.70;;;24.06;60.46;100927.28;5025216;27;97007;-75
2021/07/14 07:27:43;;;;;;;3.47;2.35;;;20.40;76.50;;;24.24;60.33;100919.84;5039736;27;97767;-75
2021/07/14 07:30:13;;;;;;;11.45;3.85;;;20.50;76.40;;;24.53;59.57;100907.78;5022881;27;97246;-75
2021/07/14 07:32:42;;;;;;;3.30;2.10;;;20.60;76.20;;;24.72;59.30;100907.41;5038140;27;96861;-75
2021/07/14 07:35:13;;;;;;;3.25;1.52;;;20.80;76.00;;;25.06;58.69;100919.53;5039944;27;97000;-75
2021/07/14 07:37:42;;;;;;;2.30;1.55;;;21.00;75.80;;;25.03;59.10;100917.56;5035616;27;98076;-75
2021/07/14 07:40:13;;;;;;;4.10;1.27;;;21.10;75.50;;;25.14;59.25;100914.81;5041797;27;98079;-74
2021/07/14 07:42:45;;;;;;;3.92;2.97;;;21.20;75.40;;;25.23;58.99;100912.47;5045398;27;96760;-75
2021/07/14 07:45:14;;;;;;;4.35;3.42;;;21.40;75.40;;;25.19;59.00;100906.22;5034039;27;96957;-76
2021/07/14 07:47:43;;;;;;;4.43;2.03;;;21.40;75.30;;;25.18;59.52;100902.66;5035780;27;97968;-75
2021/07/14 07:50:14;;;;;;;7.00;2.63;;;21.50;75.30;;;25.11;59.93;100901.91;5037851;27;97484;-75
2021/07/14 07:52:43;;;;;;;4.22;3.03;;;21.50;75.30;;;24.98;59.88;100904.25;5036628;27;97132;-76
2021/07/14 07:55:14;;;;;;;3.08;2.13;;;21.50;75.40;;;25.12;59.64;100903.47;5036679;27;97173;-74
2021/07/14 07:57:44;;;;;;;3.00;2.72;;;21.50;75.40;;;25.12;60.35;100909.72;5038684;27;97309;-75
2021/07/14 08:00:21;;;;;;;11.57;3.05;;;21.60;75.50;;;25.04;60.50;100905.44;5037897;27;96880;-75
2021/07/14 08:02:50;;;;;;;6.88;2.80;;;21.50;75.50;;;24.96;60.61;100898.41;5040097;27;96925;-74
2021/07/14 08:05:21;;;;;;;6.15;4.30;;;21.50;75.70;;;24.98;60.48;100895.25;5039193;27;97001;-74
2021/07/14 08:07:51;;;;;;;11.15;2.42;;;21.50;75.80;;;24.94;60.49;100908.97;5037156;27;97416;-74
2021/07/14 08:10:20;;;;;;;2.72;1.38;;;21.50;75.80;;;24.99;60.47;100905.03;5035233;27;97761;-75
2021/07/14 08:12:49;;;;;;;3.15;1.70;;;21.40;75.80;;;25.05;60.38;100903.44;5038117;27;96946;-76
2021/07/14 08:15:18;;;;;;;3.15;2.25;;;21.50;76.00;;;25.16;60.63;100898.75;5023567;27;97081;-74
2021/07/14 08:17:47;;;;;;;4.05;1.73;;;21.50;76.00;;;25.13;60.70;100900.31;5037661;27;98197;-74
2021/07/14 08:20:16;;;;;;;5.60;2.35;;;21.50;75.90;;;25.16;60.52;100899.50;5040796;27;97131;-75
2021/07/14 08:22:46;;;;;;;19.27;3.20;;;21.50;75.90;;;25.12;60.76;100900.72;5037115;27;96975;-75
2021/07/14 08:25:15;;;;;;;8.32;4.75;;;21.50;76.00;;;25.15;60.51;100903.44;5038231;27;97011;-75
2021/07/14 08:27:44;;;;;;;2.92;1.48;;;21.60;76.10;;;25.10;60.53;100906.59;5041287;27;97991;-74
2021/07/14 08:30:15;;;;;;;6.00;2.08;;;21.50;76.10;;;25.15;60.47;100900.69;5048579;27;96589;-74
2021/07/14 08:32:44;;;;;;;6.47;4.38;;;21.60;76.10;;;25.16;60.94;100899.50;5040417;27;97239;-75
2021/07/14 08:35:16;;;;;;;8.60;2.47;;;21.60;76.10;;;25.24;60.32;100889.34;5042402;27;97399;-74
2021/07/14 08:37:50;;;;;;;;;;;21.60;76.10;;;25.29;60.70;100900.72;5044372;27;97862;-74
2021/07/14 08:40:19;;;;;;;1.48;1.33;;;21.60;76.10;;;25.40;60.21;100903.41;5042438;27;96852;-74
2021/07/14 08:42:51;;;;;;;2.38;1.85;;;21.70;76.00;;;25.52;60.10;100902.97;5051700;27;97010;-75
2021/07/14 08:45:21;;;;;;;4.45;2.85;;;21.80;76.00;;;25.65;59.60;100897.41;5042387;27;98142;-76
2021/07/14 08:47:52;;;;;;;20.38;3.30;;;21.90;75.90;;;25.74;59.59;100905.22;5032232;27;97887;-76
2021/07/14 08:50:23;;;;;;;1.70;1.60;;;21.90;75.70;;;25.74;59.85;100897.78;5045691;27;97819;-75
2021/07/14 08:52:53;;;;;;;3.20;1.45;;;22.00;75.70;;;25.84;59.28;100894.22;5048449;27;98367;-76
2021/07/14 08:55:24;;;;;;;20.52;4.75;;;22.10;75.70;;;25.87;59.87;100892.66;5043165;27;96839;-76
2021/07/14 08:57:53;;;;;;;3.00;2.72;;;22.10;75.60;;;25.94;59.47;100890.63;5043513;27;98001;-76
2021/07/14 09:00:26;;;;;;;4.13;2.80;;;22.20;75.70;;;26.05;59.37;100896.06;5044738;27;97296;-76
2021/07/14 09:02:57;;;;;;;9.23;4.07;;;22.20;76.00;;;26.22;59.47;100892.44;5038036;27;97552;-75
2021/07/14 09:05:26;;;;;;;9.43;3.55;;;22.30;75.60;;;26.51;58.95;100888.34;5038027;27;97193;-74
2021/07/14 09:07:57;;;;;;;5.55;2.80;;;22.50;75.50;;;26.68;58.37;100884.63;5040628;27;97743;-76
2021/07/14 09:10:26;;;;;;;5.65;2.90;;;22.60;75.30;;;26.98;57.89;100882.78;5039439;27;98024;-75
2021/07/14 09:12:58;;;;;;;10.73;4.57;;;22.80;75.10;;;27.33;57.20;100881.69;5037797;27;96738;-74
2021/07/14 09:15:31;;;;;;;1.20;1.13;;;23.00;74.90;;;27.55;57.07;100884.53;5051768;27;96829;-75
2021/07/14 09:18:05;;;;;;;3.40;1.97;;;23.20;74.60;;;27.57;57.08;100882.13;5060938;27;97915;-75
2021/07/14 09:20:36;;;;;;;3.65;2.30;;;23.30;74.50;;;27.56;57.49;100883.31;5040758;27;98280;-75
2021/07/14 09:23:10;;;;;;;2.83;2.63;;;23.40;74.50;;;27.72;57.14;100882.75;5024128;27;96963;-76
2021/07/14 09:25:43;;;;;;;3.13;2.10;;;23.60;74.40;;;27.67;57.47;100881.25;5041666;27;96950;-75
2021/07/14 09:28:16;;;;;;;5.93;1.83;;;23.60;74.40;;;27.70;57.67;100885.94;5048855;27;97404;-75
2021/07/14 09:30:48;;;;;;;;;;;23.70;74.30;;;27.94;57.33;100881.28;5043140;27;96812;-74
2021/07/14 09:33:18;;;;;;;2.03;1.83;;;23.80;74.40;;;28.22;56.81;100883.63;5042466;27;97332;-74
2021/07/14 09:35:50;;;;;;;1.30;1.20;;;24.00;74.20;;;28.29;56.88;100889.84;5044389;27;97032;-75
2021/07/14 09:38:24;;;;;;;2.27;1.67;;;24.10;74.10;;;28.16;57.21;100879.78;5039162;27;98867;-76
2021/07/14 09:40:56;;;;;;;2.38;1.38;;;24.10;74.10;;;28.02;57.66;100878.03;5046964;27;97698;-75
2021/07/14 09:43:28;;;;;;;9.43;2.30;;;24.20;74.20;;;27.96;58.13;100879.69;5058953;27;97306;-75
2021/07/14 09:45:59;;;;;;;0.73;0.73;;;24.10;74.30;;;28.08;57.86;100878.34;5040404;27;97062;-74
2021/07/14 09:48:34;;;;;;;4.03;2.33;;;24.20;74.30;;;28.04;58.05;100881.16;5059313;27;97991;-75
2021/07/14 09:51:09;;;;;;;2.07;1.90;;;24.20;74.30;;;28.34;57.52;100877.56;5042607;27;96918;-76
2021/07/14 09:53:42;;;;;;;1.05;1.02;;;24.30;74.30;;;28.67;56.81;100877.41;5042336;27;96884;-75
2021/07/14 09:56:15;;;;;;;2.88;1.95;;;24.40;74.20;;;29.03;56.33;100879.16;5038319;27;96816;-74
2021/07/14 09:58:45;;;;;;;2.00;1.80;;;24.60;73.90;;;29.66;55.10;100877.13;5021116;27;97248;-75
2021/07/14 10:01:17;;;;;;;2.42;1.35;;;24.90;73.60;;;29.88;54.92;100870.72;5025364;27;98006;-75
2021/07/14 10:03:51;;;;;;;4.25;2.50;;;25.30;73.40;;;30.03;55.29;100880.28;5021754;27;97143;-75
2021/07/14 10:06:26;;;;;;;1.55;0.98;;;25.50;73.20;;;29.82;55.90;100879.94;5045614;27;98072;-75
2021/07/14 10:09:04;;;;;;;2.13;1.67;;;25.60;73.10;;;29.43;57.06;100882.72;5041109;27;98220;-76
2021/07/14 10:11:33;;;;;;;9.27;3.55;;;25.60;73.20;;;29.30;57.34;100885.34;5023061;27;96877;-80
2021/07/14 10:14:09;;;;;;;5.55;2.65;;;25.50;73.30;;;29.21;57.80;100889.88;5029808;27;97060;-81
2021/07/14 10:16:40;;;;;;;5.82;1.70;;;25.40;73.40;;;29.10;57.88;100890.06;5044959;27;97449;-75
2021/07/14 10:19:12;;;;;;;0.88;0.85;;;25.40;73.60;;;28.77;59.05;100895.75;5038015;27;96926;-75
2021/07/14 10:21:45;;;;;;;3.27;1.97;;;25.20;73.70;;;28.57;59.30;100891.38;5027062;27;97655;-76
2021/07/14 10:24:18;;;;;;;6.32;2.75;;;25.10;74.00;;;28.45;59.66;100892.75;5037705;27;96889;-75
2021/07/14 10:26:53;;;;;;;5.50;2.92;;;25.00;74.20;;;28.55;59.13;100893.78;5038594;27;96868;-75
2021/07/14 10:29:22;;;;;;;8.30;3.10;;;24.90;74.30;;;28.54;59.09;100890.25;5037987;27;97829;-75
2021/07/14 10:31:53;;;;;;;3.45;1.77;;;24.90;74.40;;;28.53;59.15;100888.69;5039128;27;97866;-75
2021/07/14 10:34:23;;;;;;;5.65;2.53;;;24.80;74.40;;;28.49;59.08;100887.94;5039984;27;96769;-75
2021/07/14 10:36:53;;;;;;;60.83;3.85;;;24.80;74.50;;;28.45;59.29;100886.47;5034453;27;97405;-75